Time;durP1;ratioP1;P1;durP2;ratioP2;P2;SDS_P1;SDS_P2;PMS_P1;PMS_P2;Temp;Humidity;BMP_temperature;BMP_pressure;BME280_temperature;BME280_humidity;BME280_pressure;Samples;Min_cycle;Max_cycle;Signal;HPM_P1;HPM_P2
2022/08/23 00:01:49;;;;;;;4.28;2.13;;;20.20;99.90;;;;;;5064979;28;20213;-64
2022/08/23 00:04:20;;;;;;;4.50;1.70;;;20.20;99.90;;;;;;5071210;28;20192;-63
2022/08/23 00:06:48;;;;;;;4.25;2.35;;;20.00;99.90;;;;;;5044723;28;20212;-64
2022/08/23 00:09:16;;;;;;;3.20;1.90;;;20.20;71.20;;;;;;5056658;28;20252;-63
2022/08/23 00:11:46;;;;;;;4.82;2.10;;;20.30;26.80;;;;;;5055737;28;20227;-64
2022/08/23 00:14:16;;;;;;;4.57;2.35;;;20.20;33.30;;;;;;5060231;28;20921;-63
2022/08/23 00:16:43;;;;;;;2.58;2.17;;;20.30;13.70;;;;;;5066603;28;20232;-63
2022/08/23 00:19:12;;;;;;;4.38;2.33;;;20.30;13.00;;;;;;5064590;28;20676;-63
2022/08/23 00:21:41;;;;;;;7.43;2.30;;;20.30;1.00;;;;;;5038347;28;20773;-63
2022/08/23 00:24:10;;;;;;;2.88;1.98;;;20.30;1.00;;;;;;5047982;28;20223;-63
2022/08/23 00:26:57;;;;;;;4.15;2.50;;;20.30;1.00;;;;;;5057376;28;20220;-63
2022/08/23 00:29:27;;;;;;;8.77;2.00;;;20.30;1.00;;;;;;5063952;28;20229;-63
2022/08/23 00:31:55;;;;;;;4.45;2.10;;;20.40;1.00;;;;;;5053207;28;20201;-63
2022/08/23 00:34:21;;;;;;;6.22;2.10;;;20.30;1.00;;;;;;5058150;28;20205;-63
2022/08/23 00:36:51;;;;;;;2.97;2.08;;;20.40;1.00;;;;;;5063317;28;20232;-63
2022/08/23 00:39:19;;;;;;;3.17;1.90;;;20.40;1.00;;;;;;5051744;28;20699;-63
2022/08/23 00:41:47;;;;;;;5.07;2.08;;;20.40;1.00;;;;;;5057498;28;20204;-63
2022/08/23 00:49:54;;;;;;;5.43;2.10;;;20.30;1.00;;;;;;5070340;28;20721;-63
2022/08/23 00:52:28;;;;;;;6.38;2.20;;;20.30;1.00;;;;;;5069391;28;20604;-64
2022/08/23 00:54:56;;;;;;;2.17;1.92;;;20.30;1.00;;;;;;5033173;28;20580;-63
2022/08/23 00:57:25;;;;;;;5.65;1.83;;;21.60;1.00;;;;;;5044255;28;20257;-63
2022/08/23 00:59:52;;;;;;;3.28;2.20;;;20.30;1.00;;;;;;5063362;28;20319;-63
2022/08/23 01:02:19;;;;;;;3.17;1.98;;;20.30;1.00;;;;;;5054963;28;20200;-63
2022/08/23 01:04:55;;;;;;;3.10;1.58;;;20.30;1.00;;;;;;5065959;28;20570;-64
2022/08/23 01:07:35;;;;;;;7.28;2.00;;;20.30;1.00;;;;;;5071132;28;20195;-63
2022/08/23 01:10:10;;;;;;;3.92;2.08;;;20.30;1.00;;;;;;5026433;28;20227;-63
2022/08/23 01:12:41;;;;;;;4.32;2.33;;;20.30;1.00;;;;;;5044488;28;20211;-62
2022/08/23 01:15:15;;;;;;;4.53;2.10;;;20.30;1.00;;;;;;5045738;28;20207;-64
2022/08/23 01:17:47;;;;;;;4.00;2.13;;;20.30;1.00;;;;;;5058009;28;20204;-64
2022/08/23 01:20:17;;;;;;;2.78;1.85;;;20.30;1.00;;;;;;5058241;28;20219;-64
2022/08/23 01:22:52;;;;;;;3.20;2.10;;;20.20;23.50;;;;;;5066445;28;21057;-64
2022/08/23 01:25:22;;;;;;;3.70;2.10;;;20.20;21.90;;;;;;5032419;28;20224;-64
2022/08/23 01:27:50;;;;;;;4.13;1.80;;;20.20;23.80;;;;;;5061356;28;20771;-64
2022/08/23 01:30:20;;;;;;;2.30;2.10;;;20.20;49.10;;;;;;5042718;28;20208;-65
2022/08/23 01:32:51;;;;;;;5.00;2.10;;;20.20;41.50;;;;;;5052541;28;20615;-64
2022/08/23 01:35:19;;;;;;;4.30;2.10;;;20.20;53.00;;;;;;5060309;28;20255;-63
2022/08/23 01:37:46;;;;;;;4.47;1.90;;;20.20;1.00;;;;;;5064956;28;20215;-64
2022/08/23 01:40:13;;;;;;;2.72;2.10;;;20.30;1.00;;;;;;5039061;28;20200;-63
2022/08/23 01:42:41;;;;;;;6.25;2.30;;;20.20;7.90;;;;;;5057084;28;20211;-63
2022/08/23 01:45:11;;;;;;;3.05;2.20;;;20.40;99.90;;;;;;5058393;28;20292;-64
2022/08/23 01:47:38;;;;;;;5.13;2.22;;;20.20;1.00;;;;;;5050020;28;20257;-63
2022/08/23 01:50:06;;;;;;;2.53;2.00;;;20.20;10.90;;;;;;5067593;28;20203;-64
2022/08/23 01:52:34;;;;;;;5.32;2.00;;;20.20;3.00;;;;;;5044028;28;20220;-64
2022/08/23 01:55:02;;;;;;;3.08;2.15;;;20.20;23.30;;;;;;5041455;28;20212;-63
2022/08/23 01:57:29;;;;;;;3.80;2.10;;;20.20;46.60;;;;;;5050040;28;20319;-65
2022/08/23 01:59:58;;;;;;;2.25;2.03;;;20.20;99.90;;;;;;5054058;28;20203;-64
2022/08/23 02:02:25;;;;;;;6.82;2.20;;;20.20;99.90;;;;;;5058453;28;20201;-64
2022/08/23 02:04:52;;;;;;;5.22;2.17;;;20.20;99.90;;;;;;5067546;28;20192;-64
2022/08/23 02:07:19;;;;;;;5.32;2.08;;;20.20;88.30;;;;;;5057702;28;20199;-64
2022/08/23 02:09:47;;;;;;;5.03;2.63;;;20.10;80.40;;;;;;5035441;28;20314;-65
2022/08/23 02:12:14;;;;;;;3.42;2.00;;;20.10;92.60;;;;;;5064100;28;20204;-62
2022/08/23 02:14:41;;;;;;;6.07;2.30;;;21.30;71.80;;;;;;5061781;28;20207;-63
2022/08/23 02:17:09;;;;;;;2.10;1.90;;;20.10;91.10;;;;;;5054048;28;20235;-64
2022/08/23 02:19:37;;;;;;;3.67;2.20;;;20.10;40.80;;;;;;5055697;28;21145;-62
2022/08/23 02:22:06;;;;;;;5.00;2.08;;;20.20;81.80;;;;;;5065093;28;20946;-64
2022/08/23 02:24:33;;;;;;;4.30;1.98;;;20.10;21.90;;;;;;5065306;28;20796;-64
2022/08/23 02:27:04;;;;;;;5.82;2.17;;;20.10;47.90;;;;;;5039116;28;20211;-64
2022/08/23 02:29:34;;;;;;;3.65;2.20;;;20.00;54.20;;;;;;5051634;28;20229;-64
2022/08/23 02:32:02;;;;;;;4.38;2.33;;;20.00;66.60;;;;;;5053860;28;20205;-63
2022/08/23 02:34:32;;;;;;;3.15;2.10;;;20.40;73.00;;;;;;5049446;28;20195;-62
2022/08/23 02:36:59;;;;;;;4.00;2.20;;;20.00;99.90;;;;;;5062981;28;20234;-63
2022/08/23 02:39:26;;;;;;;5.38;2.10;;;20.00;99.90;;;;;;5056654;28;20212;-62
2022/08/23 02:41:53;;;;;;;4.68;2.30;;;20.00;99.90;;;;;;5037707;28;20208;-63
2022/08/23 02:44:20;;;;;;;3.92;2.40;;;20.00;99.90;;;;;;5058865;28;20215;-63
2022/08/23 02:46:48;;;;;;;4.28;2.10;;;19.90;99.90;;;;;;5052311;28;20212;-62
2022/08/23 02:49:16;;;;;;;2.40;2.20;;;20.00;99.90;;;;;;5052444;28;20236;-64
2022/08/23 02:51:44;;;;;;;5.63;2.30;;;19.90;99.90;;;;;;5061562;28;20200;-63
2022/08/23 02:54:12;;;;;;;4.15;2.20;;;;;;;;;;5066167;28;20200;-63
2022/08/23 02:56:39;;;;;;;8.38;2.10;;;19.90;1.00;;;;;;5038140;28;20232;-63
2022/08/23 02:59:07;;;;;;;2.83;2.08;;;19.90;1.00;;;;;;5057643;28;20305;-63
2022/08/23 03:01:36;;;;;;;4.97;2.20;;;19.80;99.90;;;;;;5050052;28;20204;-63
2022/08/23 03:04:05;;;;;;;2.60;2.05;;;19.90;1.00;;;;;;5028869;28;20611;-64
2022/08/23 03:06:32;;;;;;;4.50;2.30;;;19.90;1.00;;;;;;5050047;28;20204;-63
2022/08/23 03:09:00;;;;;;;4.28;2.03;;;19.80;1.00;;;;;;5062139;28;20200;-62
2022/08/23 03:11:27;;;;;;;2.47;2.20;;;19.90;1.00;;;;;;5057838;28;20216;-63
2022/08/23 03:13:55;;;;;;;5.28;2.30;;;19.80;1.00;;;;;;5035883;28;20208;-63
2022/08/23 03:16:22;;;;;;;6.07;2.25;;;19.90;99.90;;;;;;5057254;28;20300;-64
2022/08/23 03:18:49;;;;;;;4.07;2.55;;;19.90;99.90;;;;;;5047703;28;20207;-63
2022/08/23 03:21:17;;;;;;;6.68;2.13;;;19.90;99.90;;;;;;5056558;28;20200;-64
2022/08/23 03:23:44;;;;;;;3.65;2.05;;;19.90;1.00;;;;;;5064851;28;20211;-63
2022/08/23 03:26:14;;;;;;;5.18;2.25;;;19.80;99.90;;;;;;5050348;28;20219;-62
2022/08/23 03:28:43;;;;;;;7.55;2.28;;;19.80;99.90;;;;;;5032603;28;20209;-64
2022/08/23 03:31:11;;;;;;;8.57;2.50;;;19.80;99.90;;;;;;5066036;28;20468;-62
2022/08/23 03:33:38;;;;;;;4.32;2.40;;;19.80;99.90;;;;;;5043871;28;20224;-63
2022/08/23 03:36:07;;;;;;;2.92;2.30;;;19.80;99.90;;;;;;5056236;28;20599;-64
2022/08/23 03:38:35;;;;;;;13.20;2.58;;;19.70;99.90;;;;;;5067827;28;20192;-63
2022/08/23 03:41:02;;;;;;;6.10;2.63;;;19.70;1.00;;;;;;5071812;28;20579;-64
2022/08/23 03:43:30;;;;;;;5.25;2.40;;;19.70;99.90;;;;;;5039531;28;20581;-64
2022/08/23 03:45:57;;;;;;;4.70;2.13;;;19.70;1.00;;;;;;5069886;28;20196;-63
2022/08/23 03:48:24;;;;;;;5.72;2.20;;;19.70;1.00;;;;;;5056989;28;20203;-64
2022/08/23 03:50:51;;;;;;;2.30;2.05;;;19.70;1.00;;;;;;5045550;28;20202;-63
2022/08/23 03:53:18;;;;;;;3.95;2.40;;;19.60;1.00;;;;;;5066900;28;20203;-64
2022/08/23 03:55:46;;;;;;;3.28;2.20;;;19.60;99.90;;;;;;5067048;28;20800;-63
2022/08/23 03:58:13;;;;;;;3.97;2.50;;;19.60;99.90;;;;;;5044594;28;20215;-63
2022/08/23 04:00:41;;;;;;;3.05;2.42;;;19.60;1.00;;;;;;5059402;28;20204;-63
2022/08/23 04:03:07;;;;;;;2.83;2.40;;;19.50;1.00;;;;;;5060264;28;20204;-62
2022/08/23 04:05:35;;;;;;;4.38;2.58;;;19.60;1.00;;;;;;5045638;28;20223;-63
2022/08/23 04:08:08;;;;;;;7.22;2.75;;;19.30;1.00;;;;;;5064216;28;20281;-64
2022/08/23 04:10:34;;;;;;;2.97;2.40;;;19.50;1.00;;;;;;5063578;28;20216;-62
2022/08/23 04:13:01;;;;;;;4.57;2.40;;;19.50;1.00;;;;;;5053710;28;20761;-63
2022/08/23 04:15:29;;;;;;;5.47;2.53;;;19.50;1.00;;;;;;5037578;28;20227;-64
2022/08/23 04:17:59;;;;;;;4.40;2.33;;;19.60;1.00;;;;;;5060204;28;20712;-63
2022/08/23 04:20:26;;;;;;;6.93;3.33;;;19.10;1.00;;;;;;5049953;28;21072;-63
2022/08/23 04:22:53;;;;;;;3.10;2.00;;;19.40;1.00;;;;;;5041638;28;20235;-63
2022/08/23 04:25:20;;;;;;;4.43;2.28;;;19.40;1.00;;;;;;5035788;28;20235;-63
2022/08/23 04:27:47;;;;;;;6.10;2.50;;;19.40;1.00;;;;;;5051832;28;20220;-63
2022/08/23 04:30:14;;;;;;;2.30;2.10;;;18.90;1.00;;;;;;5033417;28;20200;-62
2022/08/23 04:32:41;;;;;;;6.63;2.42;;;19.30;1.00;;;;;;5068348;28;20575;-64
2022/08/23 04:35:10;;;;;;;4.15;2.38;;;19.40;1.00;;;;;;5052584;28;20204;-64
2022/08/23 04:37:37;;;;;;;2.30;2.05;;;;;;;;;;5061069;28;20239;-63
2022/08/23 04:42:50;;;;;;;4.20;2.25;;;19.30;1.00;;;;;;5058372;28;20257;-64
2022/08/23 04:45:17;;;;;;;5.38;2.20;;;19.40;1.00;;;;;;5047578;28;20290;-62
2022/08/23 04:47:44;;;;;;;2.97;2.17;;;19.30;1.00;;;;;;5057717;28;20305;-63
2022/08/23 04:50:12;;;;;;;3.97;2.20;;;19.30;1.00;;;;;;5048174;28;20223;-63
2022/08/23 04:52:39;;;;;;;3.72;2.47;;;19.20;1.00;;;;;;5047329;28;20200;-63
2022/08/23 04:55:06;;;;;;;3.80;2.30;;;19.30;1.00;;;;;;5042110;28;20262;-62
2022/08/23 04:57:34;;;;;;;10.85;2.75;;;19.30;1.00;;;;;;5055496;28;21366;-62
2022/08/23 05:00:00;;;;;;;3.80;2.28;;;19.30;1.00;;;;;;5063579;28;20258;-63
2022/08/23 05:02:27;;;;;;;3.47;2.63;;;19.30;1.00;;;;;;5039600;28;20219;-62
2022/08/23 05:04:54;;;;;;;3.22;2.17;;;19.30;1.00;;;;;;5057366;28;20204;-64
2022/08/23 05:07:22;;;;;;;2.90;2.60;;;19.30;1.00;;;;;;5065851;28;20203;-63
2022/08/23 05:09:49;;;;;;;3.72;2.47;;;19.30;1.00;;;;;;5055646;28;20224;-62
2022/08/23 05:12:16;;;;;;;3.08;2.47;;;19.60;1.00;;;;;;5048381;28;20208;-62
2022/08/23 05:14:43;;;;;;;6.28;2.38;;;19.20;1.00;;;;;;5054787;28;20208;-63
2022/08/23 05:17:10;;;;;;;6.78;2.83;;;19.70;92.50;;;;;;5024083;28;20862;-63
2022/08/23 05:19:36;;;;;;;4.88;2.50;;;19.30;99.90;;;;;;5047677;28;20844;-62
2022/08/23 05:22:03;;;;;;;4.53;2.20;;;19.20;99.90;;;;;;5051348;28;21010;-63
2022/08/23 05:24:32;;;;;;;5.82;2.60;;;19.10;99.90;;;;;;5054526;28;20216;-62
2022/08/23 05:26:58;;;;;;;8.13;2.53;;;19.10;1.00;;;;;;5043285;28;20230;-63
2022/08/23 05:29:28;;;;;;;5.07;2.90;;;19.10;1.00;;;;;;5058424;28;20216;-64
2022/08/23 05:31:56;;;;;;;5.85;2.95;;;19.10;1.00;;;;;;5052742;28;20215;-63
2022/08/23 05:34:22;;;;;;;4.43;2.60;;;19.10;1.00;;;;;;5046839;28;20205;-63
2022/08/23 05:36:50;;;;;;;3.83;2.63;;;19.00;1.00;;;;;;5058823;28;20232;-63
2022/08/23 05:39:16;;;;;;;6.05;2.45;;;19.00;1.00;;;;;;5047139;28;21682;-63
2022/08/23 05:41:45;;;;;;;4.03;2.28;;;19.00;1.00;;;;;;5059560;28;20200;-64
2022/08/23 05:44:12;;;;;;;6.40;2.80;;;19.00;99.90;;;;;;5057838;28;20213;-63
2022/08/23 05:46:40;;;;;;;2.65;2.22;;;19.00;99.90;;;;;;5066115;28;20204;-64
2022/08/23 05:49:08;;;;;;;4.97;2.28;;;19.10;1.00;;;;;;5042073;28;21137;-62
2022/08/23 05:51:35;;;;;;;2.75;2.40;;;19.10;1.00;;;;;;5054894;28;20204;-63
2022/08/23 05:54:06;;;;;;;5.75;2.75;;;19.20;1.00;;;;;;5048166;28;20216;-62
2022/08/23 05:56:35;;;;;;;2.83;2.30;;;19.20;1.00;;;;;;5055029;28;20199;-64
2022/08/23 05:59:08;;;;;;;4.70;2.60;;;19.30;1.00;;;;;;5036894;28;20696;-63
2022/08/23 06:01:36;;;;;;;5.22;2.92;;;19.20;99.90;;;;;;5067007;28;20204;-62
2022/08/23 06:04:05;;;;;;;4.55;2.65;;;19.50;92.80;;;;;;5039998;28;20212;-62
2022/08/23 06:06:33;;;;;;;6.18;2.58;;;19.30;99.90;;;;;;5052516;28;20227;-62
2022/08/23 06:09:01;;;;;;;4.70;2.58;;;19.20;70.30;;;;;;5060671;28;20211;-63
2022/08/23 06:11:29;;;;;;;2.95;2.58;;;19.30;1.00;;;;;;5055437;28;20211;-63
2022/08/23 06:13:59;;;;;;;2.88;2.20;;;19.40;1.00;;;;;;5058905;28;20204;-63
2022/08/23 06:16:30;;;;;;;4.15;2.38;;;19.50;12.20;;;;;;5053628;28;20226;-62
2022/08/23 06:18:57;;;;;;;7.55;2.55;;;19.50;3.90;;;;;;5037285;28;20656;-63
2022/08/23 06:21:26;;;;;;;4.88;2.13;;;19.60;1.00;;;;;;5027661;28;20235;-63
2022/08/23 06:23:53;;;;;;;6.63;2.28;;;19.70;1.00;;;;;;5059918;28;20276;-63
2022/08/23 06:26:23;;;;;;;3.83;2.30;;;19.80;1.00;;;;;;5046847;28;20232;-62
2022/08/23 06:28:52;;;;;;;4.30;2.60;;;19.50;1.00;;;;;;5060827;28;20211;-63
2022/08/23 06:31:44;;;;;;;2.90;2.42;;;19.90;1.00;;;;;;5044754;28;20715;-64
2022/08/23 06:34:11;;;;;;;5.00;2.60;;;19.80;1.00;;;;;;5034760;28;20672;-64
2022/08/23 06:36:38;;;;;;;3.33;2.08;;;19.90;99.90;;;;;;5055259;28;20600;-63
2022/08/23 06:39:06;;;;;;;5.53;2.33;;;20.20;99.90;;;;;;5048109;28;20962;-63
2022/08/23 06:41:33;;;;;;;5.38;2.40;;;20.00;99.90;;;;;;5048236;28;20204;-63
2022/08/23 06:44:00;;;;;;;2.30;2.10;;;20.30;99.90;;;;;;5034730;28;21805;-63
2022/08/23 06:46:29;;;;;;;3.15;2.35;;;20.20;99.90;;;;;;5060427;28;20227;-63
2022/08/23 06:48:57;;;;;;;5.32;2.35;;;;;;;;;;5038859;28;20206;-63
2022/08/23 06:51:29;;;;;;;5.72;2.75;;;20.20;6.30;;;;;;5043799;28;20216;-63
2022/08/23 06:53:57;;;;;;;3.47;2.22;;;20.30;1.00;;;;;;5041896;28;20204;-62
2022/08/23 06:56:25;;;;;;;12.73;2.40;;;20.30;1.00;;;;;;5058285;28;20196;-63
2022/08/23 06:58:53;;;;;;;3.17;2.22;;;20.30;1.00;;;;;;5016294;28;20231;-62
2022/08/23 07:01:22;;;;;;;4.10;2.30;;;20.40;1.00;;;;;;5046388;28;20237;-62
2022/08/23 07:03:55;;;;;;;2.38;2.08;;;20.50;99.90;;;;;;5041231;28;20265;-64
2022/08/23 07:06:22;;;;;;;3.65;2.30;;;20.50;99.90;;;;;;5028179;28;20375;-62
2022/08/23 07:08:51;;;;;;;8.80;2.28;;;20.60;99.90;;;;;;5039884;28;20219;-62
2022/08/23 07:11:18;;;;;;;9.65;2.50;;;20.60;99.90;;;;;;5047410;28;20228;-64
2022/08/23 07:13:45;;;;;;;3.85;2.28;;;20.60;99.90;;;;;;5061390;28;20200;-63
2022/08/23 07:16:12;;;;;;;4.40;2.13;;;20.60;99.90;;;;;;5042830;28;20238;-64
2022/08/23 07:18:40;;;;;;;4.60;2.22;;;20.60;99.90;;;;;;5065185;28;20238;-64
2022/08/23 07:21:06;;;;;;;3.25;2.22;;;20.60;99.90;;;;;;5026022;28;20199;-64
2022/08/23 07:23:35;;;;;;;7.97;2.45;;;20.80;99.90;;;;;;5053467;28;20234;-64
2022/08/23 07:26:07;;;;;;;4.20;2.47;;;21.00;99.90;;;;;;5050672;28;20315;-64
2022/08/23 07:28:35;;;;;;;12.45;2.28;;;20.90;99.90;;;;;;5057265;28;20203;-63
2022/08/23 07:31:09;;;;;;;3.72;2.42;;;20.90;99.90;;;;;;5034832;28;20228;-64
2022/08/23 07:33:36;;;;;;;5.60;2.65;;;21.20;99.90;;;;;;5058904;28;20216;-63
2022/08/23 07:36:04;;;;;;;3.25;2.60;;;20.90;99.90;;;;;;5023363;28;20341;-63
2022/08/23 07:38:30;;;;;;;10.38;2.42;;;20.90;99.90;;;;;;5049424;28;20792;-64
2022/08/23 07:40:57;;;;;;;7.82;3.25;;;21.00;33.90;;;;;;5036658;28;20222;-63
2022/08/23 07:43:26;;;;;;;4.75;2.60;;;21.30;13.10;;;;;;5060798;28;20249;-63
2022/08/23 07:45:52;;;;;;;6.38;2.17;;;21.10;1.50;;;;;;5047738;28;20200;-63
2022/08/23 07:48:20;;;;;;;9.02;2.60;;;;;;;;;;5057520;28;20244;-63
2022/08/23 07:50:54;;;;;;;6.00;2.00;;;21.30;1.00;;;;;;5049819;28;20210;-63
2022/08/23 07:53:22;;;;;;;3.50;1.95;;;21.30;1.00;;;;;;5050790;28;20982;-63
2022/08/23 07:55:49;;;;;;;7.43;2.63;;;21.20;1.00;;;;;;5042749;28;20409;-63
2022/08/23 07:58:16;;;;;;;2.92;1.85;;;21.40;1.00;;;;;;5058250;28;20228;-63
2022/08/23 08:00:45;;;;;;;8.60;2.50;;;21.40;1.00;;;;;;5053904;28;20837;-63
2022/08/23 08:03:12;;;;;;;3.25;2.50;;;21.50;1.00;;;;;;5051034;28;20243;-62
2022/08/23 08:05:39;;;;;;;3.72;2.33;;;21.60;1.00;;;;;;5063002;28;20224;-62
2022/08/23 08:08:07;;;;;;;3.75;2.40;;;21.70;1.00;;;;;;5028871;28;20228;-63
2022/08/23 08:10:37;;;;;;;4.50;2.10;;;21.70;1.00;;;;;;5051059;28;20309;-63
2022/08/23 08:13:04;;;;;;;6.75;2.70;;;21.50;1.00;;;;;;5052821;28;20196;-63
2022/08/23 08:15:31;;;;;;;5.43;2.38;;;21.70;1.00;;;;;;5053981;28;20249;-63
2022/08/23 08:17:59;;;;;;;4.90;2.10;;;21.80;1.00;;;;;;5057087;28;20705;-64
2022/08/23 08:20:27;;;;;;;4.28;1.67;;;;;;;;;;5067391;28;20205;-63
2022/08/23 08:22:55;;;;;;;6.22;2.30;;;21.90;1.00;;;;;;5055174;28;20196;-63
2022/08/23 08:25:22;;;;;;;4.47;2.20;;;21.80;1.00;;;;;;5046746;28;20224;-62
2022/08/23 08:27:49;;;;;;;4.10;2.13;;;22.10;1.00;;;;;;5057533;28;20195;-62
2022/08/23 08:30:16;;;;;;;7.53;2.30;;;22.10;1.00;;;;;;5054731;28;20203;-62
2022/08/23 08:32:43;;;;;;;6.65;2.33;;;22.20;1.00;;;;;;5053722;28;20208;-63
2022/08/23 08:35:11;;;;;;;5.63;2.10;;;22.30;99.90;;;;;;5062301;28;20219;-63
2022/08/23 08:37:38;;;;;;;6.95;2.20;;;22.40;99.90;;;;;;5063190;28;20224;-62
2022/08/23 08:40:06;;;;;;;4.57;2.15;;;22.40;99.90;;;;;;5031031;28;20712;-63
2022/08/23 08:42:53;;;;;;;5.78;2.17;;;22.50;99.90;;;;;;5038614;28;20246;-63
2022/08/23 08:45:24;;;;;;;3.63;1.70;;;22.40;99.90;;;;;;5058614;28;20282;-64
2022/08/23 08:47:56;;;;;;;3.13;2.08;;;22.50;99.90;;;;;;5045569;28;20246;-63
2022/08/23 08:50:31;;;;;;;3.00;2.13;;;22.50;99.90;;;;;;5040583;28;20224;-63
2022/08/23 08:53:04;;;;;;;8.57;3.03;;;22.70;99.90;;;;;;5064314;28;20216;-64
2022/08/23 08:55:36;;;;;;;4.00;2.08;;;22.70;99.90;;;;;;5033321;28;20208;-64
2022/08/23 08:58:05;;;;;;;4.88;2.30;;;22.60;99.90;;;;;;5052839;28;20233;-64
2022/08/23 09:00:36;;;;;;;2.90;1.98;;;22.60;99.90;;;;;;5064155;28;20200;-63
2022/08/23 09:03:10;;;;;;;10.32;2.40;;;22.70;99.90;;;;;;5055155;28;20208;-64
2022/08/23 09:05:45;;;;;;;4.75;2.22;;;22.70;99.90;;;;;;5060122;28;20195;-63
2022/08/23 09:08:25;;;;;;;3.38;1.90;;;22.80;99.90;;;;;;5066190;28;20290;-64
2022/08/23 09:10:57;;;;;;;4.25;1.80;;;21.90;99.90;;;;;;5038572;28;20232;-64
2022/08/23 09:13:55;;;;;;;4.43;1.90;;;22.90;99.90;;;;;;5059857;28;20205;-63
2022/08/23 09:16:31;;;;;;;4.05;2.00;;;22.90;99.90;;;;;;5057862;28;20704;-64
2022/08/23 09:19:00;;;;;;;3.95;1.80;;;23.10;99.90;;;;;;5029916;28;20231;-64
2022/08/23 09:21:31;;;;;;;8.55;2.10;;;23.10;99.90;;;;;;5070713;28;20200;-61
2022/08/23 09:23:59;;;;;;;3.92;2.00;;;23.20;85.50;;;;;;5053508;28;20207;-61
2022/08/23 09:26:29;;;;;;;5.05;2.10;;;23.20;62.00;;;;;;5039696;28;20300;-61
2022/08/23 09:28:59;;;;;;;8.88;2.75;;;23.30;50.20;;;;;;5056535;28;20199;-62
2022/08/23 09:31:42;;;;;;;3.20;2.05;;;23.50;24.10;;;;;;5057186;28;20254;-61
2022/08/23 09:34:10;;;;;;;6.43;2.20;;;23.50;1.00;;;;;;5052106;28;20757;-61
2022/08/23 09:36:39;;;;;;;3.55;1.85;;;23.40;7.60;;;;;;5055787;28;20205;-61
2022/08/23 09:39:22;;;;;;;3.78;2.10;;;23.60;1.00;;;;;;5051600;28;20231;-61
2022/08/23 09:41:50;;;;;;;5.47;1.90;;;23.60;1.00;;;;;;5043385;28;20448;-61
2022/08/23 09:44:35;;;;;;;5.63;1.90;;;23.80;1.00;;;;;;5052014;28;20211;-61
2022/08/23 09:47:10;;;;;;;8.88;2.42;;;23.80;1.00;;;;;;5055556;28;21920;-61
2022/08/23 09:49:41;;;;;;;3.60;1.98;;;23.80;1.00;;;;;;5037530;28;20294;-62
2022/08/23 09:52:27;;;;;;;6.88;1.90;;;23.70;1.00;;;;;;5021697;28;20227;-62
2022/08/23 09:54:56;;;;;;;8.75;2.00;;;23.90;1.00;;;;;;5026770;28;20227;-62
2022/08/23 09:57:26;;;;;;;4.63;2.13;;;24.10;1.00;;;;;;5002132;28;20489;-62
2022/08/23 09:59:55;;;;;;;3.92;2.33;;;24.10;1.00;;;;;;5041966;28;21668;-62
2022/08/23 10:02:28;;;;;;;3.75;1.90;;;24.20;1.00;;;;;;5036066;28;20200;-62
2022/08/23 10:04:59;;;;;;;3.55;1.70;;;24.30;1.00;;;;;;5038833;28;20223;-62
2022/08/23 10:07:35;;;;;;;2.95;2.03;;;24.40;1.00;;;;;;5033735;28;20232;-62
2022/08/23 10:10:19;;;;;;;7.10;2.55;;;24.40;1.00;;;;;;5044378;28;20249;-62
2022/08/23 10:12:47;;;;;;;3.25;2.22;;;24.40;1.00;;;;;;5011686;28;20582;-62
2022/08/23 10:15:14;;;;;;;6.18;1.90;;;24.40;1.00;;;;;;5040807;28;20312;-62
2022/08/23 10:17:49;;;;;;;3.92;1.90;;;24.50;1.00;;;;;;5052915;28;20257;-62
2022/08/23 10:20:27;;;;;;;13.13;2.65;;;24.70;1.00;;;;;;5044278;28;20226;-62
2022/08/23 10:23:12;;;;;;;7.28;2.67;;;24.60;1.00;;;;;;5043886;28;20219;-62
2022/08/23 10:25:44;;;;;;;4.88;1.88;;;24.70;1.00;;;;;;5050693;28;20224;-62
2022/08/23 10:31:14;;;;;;;4.15;2.25;;;24.60;1.00;;;;;;5034684;28;21243;-62
2022/08/23 10:33:46;;;;;;;13.20;2.40;;;24.70;1.00;;;;;;5065709;28;20243;-62
2022/08/23 10:36:19;;;;;;;4.10;2.15;;;24.70;1.00;;;;;;5041727;28;20214;-63
2022/08/23 10:38:56;;;;;;;6.72;3.55;;;24.80;1.00;;;;;;5055382;28;20228;-63
2022/08/23 10:41:40;;;;;;;8.32;3.20;;;24.70;1.00;;;;;;5053230;28;20204;-63
2022/08/23 10:44:22;;;;;;;3.33;2.03;;;24.80;1.00;;;;;;5030636;28;20220;-63
2022/08/23 10:46:57;;;;;;;5.85;2.30;;;24.80;1.00;;;;;;5028762;28;20215;-63
2022/08/23 10:49:27;;;;;;;5.07;2.10;;;24.80;1.00;;;;;;5053697;28;20583;-63
2022/08/23 10:51:58;;;;;;;3.88;2.50;;;25.00;1.00;;;;;;5042556;28;20234;-63
2022/08/23 10:54:34;;;;;;;2.60;2.10;;;25.00;1.00;;;;;;5053391;28;20731;-63
2022/08/23 10:57:02;;;;;;;3.83;1.83;;;25.00;1.00;;;;;;5050290;28;20203;-63
2022/08/23 10:59:32;;;;;;;3.33;2.15;;;25.00;1.00;;;;;;5041575;28;20419;-63
2022/08/23 11:02:04;;;;;;;11.65;2.50;;;25.00;1.00;;;;;;5051493;28;20200;-63
2022/08/23 11:04:38;;;;;;;5.03;2.08;;;24.90;1.00;;;;;;5054045;28;20207;-64
2022/08/23 11:07:17;;;;;;;4.20;2.13;;;25.20;1.00;;;;;;5036678;28;20220;-63
2022/08/23 11:09:58;;;;;;;6.10;2.10;;;25.10;1.00;;;;;;5050056;28;20228;-63
2022/08/23 11:12:32;;;;;;;4.80;2.05;;;25.10;1.00;;;;;;5044919;28;21046;-63
2022/08/23 11:15:09;;;;;;;8.25;2.00;;;25.20;1.00;;;;;;5027991;28;20223;-61
2022/08/23 11:17:43;;;;;;;4.95;2.15;;;25.10;1.00;;;;;;5048634;28;20208;-62
2022/08/23 11:20:13;;;;;;;8.00;2.00;;;25.10;1.00;;;;;;5045175;28;20733;-61
2022/08/23 11:23:12;;;;;;;6.70;1.90;;;25.20;1.00;;;;;;5046029;28;20232;-63
2022/08/23 11:25:43;;;;;;;8.75;2.03;;;25.30;1.00;;;;;;5059371;28;20212;-63
2022/08/23 11:28:39;;;;;;;6.97;2.05;;;25.40;1.00;;;;;;5037705;28;20236;-63
2022/08/23 11:31:24;;;;;;;5.45;1.73;;;23.70;1.00;;;;;;5003238;28;20223;-63
2022/08/23 11:33:59;;;;;;;5.43;1.90;;;25.40;1.00;;;;;;5056866;28;20224;-63
2022/08/23 11:36:28;;;;;;;2.67;1.80;;;25.40;1.00;;;;;;5045156;28;20213;-63
2022/08/23 11:39:06;;;;;;;1.80;1.70;;;25.50;1.00;;;;;;5033433;28;20705;-61
2022/08/23 11:41:35;;;;;;;3.58;1.63;;;25.60;1.00;;;;;;5049700;28;20199;-62
2022/08/23 11:44:26;;;;;;;6.07;1.73;;;25.60;1.00;;;;;;5049162;28;20204;-62
2022/08/23 11:47:02;;;;;;;4.30;1.80;;;25.70;1.00;;;;;;5028833;28;20257;-61
2022/08/23 11:49:55;;;;;;;2.65;1.67;;;25.80;1.00;;;;;;5060935;28;20221;-63
2022/08/23 11:52:46;;;;;;;5.93;1.80;;;25.90;1.00;;;;;;5043795;28;21013;-63
2022/08/23 11:55:51;;;;;;;3.53;1.92;;;25.80;1.00;;;;;;5036050;28;20269;-62
2022/08/23 11:58:26;;;;;;;6.30;2.03;;;25.80;1.00;;;;;;5012009;28;20957;-63
2022/08/23 12:01:05;;;;;;;5.95;1.92;;;25.80;1.00;;;;;;5062642;28;20199;-61
2022/08/23 12:03:36;;;;;;;3.10;1.60;;;25.80;1.00;;;;;;5050853;28;20227;-63
2022/08/23 12:06:17;;;;;;;4.95;1.70;;;25.70;1.00;;;;;;5055183;22;20763;-62
2022/08/23 12:08:55;;;;;;;6.22;1.67;;;25.70;1.00;;;;;;5052103;22;20853;-62
2022/08/23 12:11:25;;;;;;;3.45;1.70;;;25.70;1.00;;;;;;5019066;28;20231;-63
2022/08/23 12:14:00;;;;;;;7.05;2.05;;;25.90;1.00;;;;;;5011412;28;20364;-61
2022/08/23 12:16:32;;;;;;;4.20;1.80;;;25.90;1.00;;;;;;5022556;28;20219;-63
2022/08/23 12:19:05;;;;;;;5.63;1.80;;;25.90;1.00;;;;;;4993468;28;20224;-61
2022/08/23 12:21:41;;;;;;;1.83;1.60;;;25.80;1.00;;;;;;5019393;28;20221;-63
2022/08/23 12:24:18;;;;;;;2.47;1.73;;;26.00;1.00;;;;;;5005429;28;20563;-63
2022/08/23 12:26:51;;;;;;;4.13;1.92;;;26.20;1.00;;;;;;5014569;28;20201;-63
2022/08/23 12:29:27;;;;;;;8.20;1.88;;;26.10;1.00;;;;;;4992123;28;20225;-63
2022/08/23 12:32:01;;;;;;;4.90;1.75;;;26.20;1.00;;;;;;5017537;28;20225;-63
2022/08/23 12:34:39;;;;;;;1.60;1.40;;;24.80;1.00;;;;;;4980712;28;21179;-63
2022/08/23 12:37:16;;;;;;;4.43;2.85;;;26.20;1.00;;;;;;5020807;28;20600;-63
2022/08/23 12:39:51;;;;;;;3.33;1.73;;;26.20;1.00;;;;;;4988626;28;20229;-64
2022/08/23 12:42:27;;;;;;;3.10;1.65;;;26.20;1.00;;;;;;5008148;28;20231;-64
2022/08/23 12:45:07;;;;;;;4.97;1.58;;;26.20;1.00;;;;;;4996818;28;20922;-62
2022/08/23 12:47:35;;;;;;;2.65;1.77;;;;;;;;;;4980102;28;20227;-63
2022/08/23 12:50:18;;;;;;;5.15;1.73;;;26.20;1.00;;;;;;5001888;28;20351;-63
2022/08/23 12:52:56;;;;;;;2.75;1.40;;;26.20;1.00;;;;;;4999404;28;20316;-63
2022/08/23 12:55:23;;;;;;;4.70;1.92;;;26.20;1.00;;;;;;4993755;28;20221;-61
2022/08/23 12:57:55;;;;;;;6.80;1.60;;;26.30;1.00;;;;;;5014146;28;21030;-62
2022/08/23 13:00:26;;;;;;;2.95;1.48;;;26.40;1.00;;;;;;4995949;28;20240;-61
2022/08/23 13:02:59;;;;;;;5.05;1.88;;;26.40;1.00;;;;;;4991589;28;20226;-61
2022/08/23 13:05:43;;;;;;;5.05;2.33;;;26.40;1.00;;;;;;5005598;28;21185;-61
2022/08/23 13:08:13;;;;;;;5.25;1.65;;;26.40;1.00;;;;;;5004453;28;20212;-61
2022/08/23 13:13:25;;;;;;;4.70;1.60;;;26.60;1.00;;;;;;5035875;22;20237;-61
2022/08/23 13:15:56;;;;;;;4.22;1.40;;;26.60;1.00;;;;;;5008687;28;20209;-61
2022/08/23 13:18:25;;;;;;;3.55;1.70;;;27.30;1.00;;;;;;4980365;28;20232;-61
2022/08/23 13:21:17;;;;;;;2.55;1.83;;;26.60;1.00;;;;;;5013809;28;20251;-61
2022/08/23 13:23:44;;;;;;;5.95;1.75;;;26.70;1.00;;;;;;5014660;28;20201;-63
2022/08/23 13:26:45;;;;;;;6.45;1.83;;;26.70;1.00;;;;;;5002657;28;20360;-63
2022/08/23 13:29:21;;;;;;;1.88;1.50;;;26.70;1.00;;;;;;5042384;28;20210;-63